Time;durP1;ratioP1;P1;durP2;ratioP2;P2;SDS_P1;SDS_P2;PMS_P1;PMS_P2;Temp;Humidity;BMP_temperature;BMP_pressure;BME280_temperature;BME280_humidity;BME280_pressure;Samples;Min_cycle;Max_cycle;Signal;HPM_P1;HPM_P2
2022/05/23 00:00:47;;;;;;;;;;;;;;;27.57;32.79;99993.28;5077094;28;987;-47
2022/05/23 00:03:12;;;;;;;;;;;;;;;27.59;32.77;99991.22;5077385;28;765;-45
2022/05/23 00:05:37;;;;;;;;;;;;;;;27.56;32.71;99981.63;5076911;28;853;-44
2022/05/23 00:08:03;;;;;;;;;;;;;;;27.57;32.64;99977.91;5058975;28;1961;-45
2022/05/23 00:10:28;;;;;;;;;;;;;;;27.55;32.96;99984.53;5077346;28;802;-46
2022/05/23 00:12:53;;;;;;;;;;;;;;;27.56;32.96;99983.53;5077225;28;911;-44
2022/05/23 00:15:19;;;;;;;;;;;;;;;27.53;32.85;99983.94;5076516;28;951;-46
2022/05/23 00:17:45;;;;;;;;;;;;;;;27.56;32.65;99988.94;5076849;28;785;-45
2022/05/23 00:20:10;;;;;;;;;;;;;;;27.55;33.26;99987.25;5076900;28;988;-46
2022/05/23 00:22:37;;;;;;;;;;;;;;;27.56;32.88;99986.22;5076991;28;860;-46
2022/05/23 00:25:03;;;;;;;;;;;;;;;27.51;33.08;99989.50;5076564;28;833;-46
2022/05/23 00:27:29;;;;;;;;;;;;;;;27.51;33.01;99995.75;5077063;28;1918;-44
2022/05/23 00:29:54;;;;;;;;;;;;;;;27.50;33.34;99988.69;5076275;28;817;-46
2022/05/23 00:35:18;;;;;;;;;;;;;;;27.43;33.11;99990.53;5076843;28;670;-45
2022/05/23 00:37:43;;;;;;;;;;;;;;;27.47;33.30;99988.28;5076835;28;877;-46
2022/05/23 00:40:10;;;;;;;;;;;;;;;27.51;33.33;99990.34;5076984;28;797;-47
2022/05/23 00:45:19;;;;;;;;;;;;;;;27.51;33.42;99984.94;5069552;28;699;-46
2022/05/23 00:47:46;;;;;;;;;;;;;;;27.49;33.21;99986.22;5076276;28;1945;-47
2022/05/23 00:50:15;;;;;;;;;;;;;;;27.53;33.01;99992.84;5076782;28;793;-45
2022/05/23 00:52:44;;;;;;;;;;;;;;;27.52;33.00;99991.19;5076385;28;841;-46
2022/05/23 00:55:17;;;;;;;;;;;;;;;27.52;33.38;99996.59;5057449;28;842;-47
2022/05/23 00:57:42;;;;;;;;;;;;;;;27.52;33.54;100004.72;5058584;28;830;-46
2022/05/23 01:00:08;;;;;;;;;;;;;;;27.50;33.29;99991.41;5058136;28;895;-45
2022/05/23 01:02:35;;;;;;;;;;;;;;;27.51;33.00;99994.91;5076148;28;802;-46
2022/05/23 01:05:01;;;;;;;;;;;;;;;27.53;33.44;99983.94;5052501;28;811;-46
2022/05/23 01:07:26;;;;;;;;;;;;;;;27.49;32.93;99992.44;5075849;28;1961;-47
2022/05/23 01:09:51;;;;;;;;;;;;;;;27.54;32.87;99999.94;5075913;28;749;-45
2022/05/23 01:12:17;;;;;;;;;;;;;;;27.49;33.22;100007.81;5076447;28;774;-45
2022/05/23 01:14:45;;;;;;;;;;;;;;;27.50;32.97;100009.47;5075791;28;883;-45
2022/05/23 01:17:10;;;;;;;;;;;;;;;27.47;32.94;100005.31;5075139;28;877;-45
2022/05/23 01:19:36;;;;;;;;;;;;;;;27.48;33.13;100011.53;5076479;28;893;-47
2022/05/23 01:22:03;;;;;;;;;;;;;;;27.51;32.89;100009.28;5075832;28;829;-47
2022/05/23 01:24:32;;;;;;;;;;;;;;;27.52;32.94;100012.81;5058361;28;1109;-47
2022/05/23 01:26:57;;;;;;;;;;;;;;;27.52;32.97;100015.50;5075844;28;1906;-46
2022/05/23 01:29:22;;;;;;;;;;;;;;;27.53;32.72;100005.53;5075943;28;813;-50
2022/05/23 01:31:47;;;;;;;;;;;;;;;27.54;32.92;99999.09;5075491;28;841;-47
2022/05/23 01:34:13;;;;;;;;;;;;;;;27.56;33.20;99997.03;5075928;28;837;-48
2022/05/23 01:36:38;;;;;;;;;;;;;;;27.58;32.89;99992.22;5075598;28;838;-48
2022/05/23 01:39:03;;;;;;;;;;;;;;;27.52;32.90;99993.91;5076094;28;921;-46
2022/05/23 01:41:29;;;;;;;;;;;;;;;27.50;33.15;99988.69;5075840;28;904;-46
2022/05/23 01:43:54;;;;;;;;;;;;;;;27.50;32.98;99998.66;5075649;28;798;-45
2022/05/23 01:46:20;;;;;;;;;;;;;;;27.49;33.57;100005.94;5075544;28;1910;-47
2022/05/23 01:48:45;;;;;;;;;;;;;;;27.51;33.48;100001.16;5076203;28;753;-48
2022/05/23 01:51:10;;;;;;;;;;;;;;;27.46;33.22;100002.81;5075376;28;829;-49
2022/05/23 01:53:36;;;;;;;;;;;;;;;27.42;33.29;100005.09;5075895;28;1238;-47
2022/05/23 01:56:03;;;;;;;;;;;;;;;27.44;33.17;100011.13;5075572;28;920;-49
2022/05/23 02:01:15;;;;;;;;;;;;;;;27.43;33.53;100016.72;5075067;28;824;-45
2022/05/23 02:03:44;;;;;;;;;;;;;;;27.43;33.45;100014.00;5075812;28;823;-47
2022/05/23 02:06:09;;;;;;;;;;;;;;;27.42;33.45;100006.97;5075761;28;757;-47
2022/05/23 02:08:35;;;;;;;;;;;;;;;27.43;33.33;99992.41;5075355;28;1886;-51
2022/05/23 02:11:00;;;;;;;;;;;;;;;27.47;33.63;99996.38;5075595;28;885;-46
2022/05/23 02:13:25;;;;;;;;;;;;;;;27.50;33.33;99987.88;5074784;28;829;-48
2022/05/23 02:15:50;;;;;;;;;;;;;;;27.46;33.25;99987.44;5075396;28;766;-46
2022/05/23 02:18:16;;;;;;;;;;;;;;;27.46;33.27;99978.53;5075302;28;905;-48
2022/05/23 02:20:41;;;;;;;;;;;;;;;27.47;32.88;99982.88;5075052;28;777;-48
2022/05/23 02:23:07;;;;;;;;;;;;;;;27.46;33.00;99982.03;5075911;28;769;-48
2022/05/23 02:25:32;;;;;;;;;;;;;;;27.45;32.75;99985.78;5075104;28;1260;-50
2022/05/23 02:27:57;;;;;;;;;;;;;;;27.44;33.22;99996.78;5075671;28;1902;-50
2022/05/23 02:30:23;;;;;;;;;;;;;;;27.48;33.10;100000.72;5078820;28;802;-47
2022/05/23 02:32:48;;;;;;;;;;;;;;;27.47;33.30;99997.22;5060961;28;833;-47
2022/05/23 02:35:14;;;;;;;;;;;;;;;27.47;33.17;99996.38;5079209;28;821;-49
2022/05/23 02:37:39;;;;;;;;;;;;;;;27.48;32.96;99979.13;5072095;28;921;-50
2022/05/23 02:40:05;;;;;;;;;;;;;;;27.47;33.20;99981.00;5079183;28;834;-48
2022/05/23 02:42:31;;;;;;;;;;;;;;;27.41;33.66;99971.00;5078608;28;922;-50
2022/05/23 02:44:56;;;;;;;;;;;;;;;27.46;33.48;99973.13;5079237;28;875;-50
2022/05/23 02:47:21;;;;;;;;;;;;;;;27.42;33.42;99966.44;5078636;28;1901;-49
2022/05/23 02:49:47;;;;;;;;;;;;;;;27.43;33.40;99973.50;5078693;28;825;-50
2022/05/23 02:52:12;;;;;;;;;;;;;;;27.43;33.22;99974.34;5078647;28;887;-48
2022/05/23 02:54:37;;;;;;;;;;;;;;;27.41;33.31;99984.50;5078918;28;779;-49
2022/05/23 02:57:03;;;;;;;;;;;;;;;27.41;33.29;99981.81;5078627;28;869;-48
2022/05/23 02:59:28;;;;;;;;;;;;;;;27.40;33.25;99990.97;5078697;28;765;-45
2022/05/23 03:04:37;;;;;;;;;;;;;;;27.40;33.54;99980.16;5078191;28;825;-47
2022/05/23 03:07:03;;;;;;;;;;;;;;;27.43;33.27;99984.31;5078434;28;1958;-48
2022/05/23 03:09:30;;;;;;;;;;;;;;;27.40;33.49;99985.56;5078739;28;847;-47
2022/05/23 03:11:55;;;;;;;;;;;;;;;27.37;33.62;99984.09;5078781;28;813;-48
2022/05/23 03:14:21;;;;;;;;;;;;;;;27.40;33.52;99988.25;5078119;28;845;-46
2022/05/23 03:16:46;;;;;;;;;;;;;;;27.42;33.16;99986.19;5077180;28;969;-45
2022/05/23 03:19:12;;;;;;;;;;;;;;;27.57;33.54;99988.72;5078153;28;868;-46
2022/05/23 03:27:04;;;;;;;;;;;;;;;27.43;33.71;99982.44;5073185;28;1913;-45
2022/05/23 03:29:31;;;;;;;;;;;;;;;27.51;33.77;99986.81;5059496;28;1116;-55
2022/05/23 03:31:56;;;;;;;;;;;;;;;27.54;33.50;99991.84;5077449;28;1040;-50
2022/05/23 03:34:22;;;;;;;;;;;;;;;27.50;33.52;100002.22;5078246;28;902;-48
2022/05/23 03:36:47;;;;;;;;;;;;;;;27.49;33.44;99992.44;5077557;28;872;-51
2022/05/23 03:39:12;;;;;;;;;;;;;;;27.52;33.37;99999.31;5077280;28;775;-46
2022/05/23 03:41:38;;;;;;;;;;;;;;;27.58;33.35;100014.69;5077822;28;885;-45
2022/05/23 03:44:04;;;;;;;;;;;;;;;27.47;33.26;100010.72;5078147;28;1227;-49
2022/05/23 03:46:30;;;;;;;;;;;;;;;26.98;31.79;100018.81;5077223;28;1910;-49
2022/05/23 03:48:56;;;;;;;;;;;;;;;26.52;31.83;100023.75;5076152;28;1135;-47
2022/05/23 03:51:21;;;;;;;;;;;;;;;26.23;32.04;100019.31;5072259;28;1317;-48
2022/05/23 03:53:46;;;;;;;;;;;;;;;26.25;31.85;100033.44;5077312;28;1321;-53
2022/05/23 03:56:12;;;;;;;;;;;;;;;26.52;32.01;100033.69;5077955;28;833;-49
2022/05/23 03:58:37;;;;;;;;;;;;;;;26.67;31.87;100033.56;5077030;28;893;-48
2022/05/23 04:01:05;;;;;;;;;;;;;;;26.50;31.44;100035.72;5077130;28;837;-48
2022/05/23 04:03:31;;;;;;;;;;;;;;;26.36;31.48;100021.34;5077405;28;845;-45
2022/05/23 04:05:58;;;;;;;;;;;;;;;26.38;31.33;100028.19;5076785;28;808;-46
2022/05/23 04:08:23;;;;;;;;;;;;;;;26.51;31.71;100027.44;5077079;28;1894;-52
2022/05/23 04:10:48;;;;;;;;;;;;;;;26.78;30.97;100035.72;5076416;28;1329;-47
2022/05/23 04:13:14;;;;;;;;;;;;;;;26.83;31.23;100031.56;5077260;28;781;-47
2022/05/23 04:15:41;;;;;;;;;;;;;;;26.81;30.88;100031.78;5077124;28;880;-48
2022/05/23 04:18:06;;;;;;;;;;;;;;;26.93;31.22;100028.53;5077094;28;829;-47
2022/05/23 04:20:32;;;;;;;;;;;;;;;26.82;30.30;100017.28;5076275;28;773;-47
2022/05/23 04:22:57;;;;;;;;;;;;;;;26.74;30.81;100017.44;5076827;28;806;-45
2022/05/23 04:25:23;;;;;;;;;;;;;;;26.77;30.73;100020.56;5075860;28;1475;-43
2022/05/23 04:27:48;;;;;;;;;;;;;;;26.81;30.49;100022.88;5076024;28;1905;-45
2022/05/23 04:30:13;;;;;;;;;;;;;;;26.80;30.36;100038.22;5076094;28;1597;-44
2022/05/23 04:35:22;;;;;;;;;;;;;;;26.84;30.76;100042.16;5076149;28;1173;-44
2022/05/23 04:37:49;;;;;;;;;;;;;;;26.83;30.88;100036.97;5076323;28;1521;-46
2022/05/23 04:40:15;;;;;;;;;;;;;;;26.87;30.50;100038.25;5076568;28;766;-44
2022/05/23 04:42:40;;;;;;;;;;;;;;;26.92;30.55;100049.28;5076690;28;817;-45
2022/05/23 04:45:06;;;;;;;;;;;;;;;26.95;30.45;100073.19;5076175;28;767;-47
2022/05/23 04:50:15;;;;;;;;;;;;;;;26.89;30.85;100068.59;5075856;28;778;-45
2022/05/23 04:52:40;;;;;;;;;;;;;;;26.97;31.06;100075.69;5076221;28;916;-45
2022/05/23 04:55:06;;;;;;;;;;;;;;;26.98;31.35;100070.09;5076444;28;790;-45
2022/05/23 04:57:33;;;;;;;;;;;;;;;26.90;31.03;100072.94;5076326;28;816;-44
2022/05/23 04:59:59;;;;;;;;;;;;;;;26.98;31.06;100074.63;5075789;28;829;-45
2022/05/23 05:02:24;;;;;;;;;;;;;;;26.91;31.20;100077.28;5076031;28;911;-44
2022/05/23 05:04:49;;;;;;;;;;;;;;;26.89;31.15;100074.78;5076385;28;882;-45
2022/05/23 05:07:15;;;;;;;;;;;;;;;26.85;31.13;100072.69;5076308;28;1898;-47
2022/05/23 05:09:40;;;;;;;;;;;;;;;26.85;31.41;100072.69;5075978;28;841;-43
2022/05/23 05:12:06;;;;;;;;;;;;;;;26.87;31.25;100073.34;5075598;28;864;-43
2022/05/23 05:14:34;;;;;;;;;;;;;;;26.93;31.04;100077.94;5075946;28;826;-45
2022/05/23 05:17:00;;;;;;;;;;;;;;;27.00;30.94;100078.81;5075821;28;966;-42
2022/05/23 05:19:25;;;;;;;;;;;;;;;27.00;31.25;100076.13;5076314;28;825;-43
2022/05/23 05:21:50;;;;;;;;;;;;;;;26.97;31.26;100075.69;5075742;28;869;-44
2022/05/23 05:24:17;;;;;;;;;;;;;;;27.01;31.02;100075.13;5075914;28;832;-49
2022/05/23 05:26:43;;;;;;;;;;;;;;;26.98;31.08;100078.19;5075540;28;1984;-48
2022/05/23 05:29:08;;;;;;;;;;;;;;;26.94;30.98;100082.31;5069416;28;973;-44
2022/05/23 05:31:48;;;;;;;;;;;;;;;26.95;28.05;100083.97;5075209;28;1056;-46
2022/05/23 05:34:15;;;;;;;;;;;;;;;27.04;29.73;100081.16;5050085;28;1104;-49
2022/05/23 05:36:42;;;;;;;;;;;;;;;26.80;31.08;100076.00;5055912;28;980;-47
2022/05/23 05:39:07;;;;;;;;;;;;;;;26.63;31.18;100075.44;5057472;28;853;-45
2022/05/23 05:41:39;;;;;;;;;;;;;;;26.59;31.17;100076.88;5075392;28;766;-46
2022/05/23 05:44:05;;;;;;;;;;;;;;;26.71;31.25;100087.97;5075897;28;881;-46
2022/05/23 05:46:41;;;;;;;;;;;;;;;26.82;31.19;100087.44;5075565;28;1963;-47
2022/05/23 05:49:08;;;;;;;;;;;;;;;26.89;31.10;100092.88;5075486;28;770;-44
2022/05/23 05:51:33;;;;;;;;;;;;;;;26.70;31.13;100092.53;5074712;28;953;-46
2022/05/23 05:53:58;;;;;;;;;;;;;;;26.71;31.19;100082.59;5075850;28;798;-46
2022/05/23 05:56:24;;;;;;;;;;;;;;;26.93;30.37;100094.13;5075648;28;853;-48
2022/05/23 05:58:49;;;;;;;;;;;;;;;26.92;29.89;100091.63;5076125;28;869;-45
2022/05/23 06:01:14;;;;;;;;;;;;;;;26.83;30.59;100099.03;5054034;28;1302;-46
2022/05/23 06:03:40;;;;;;;;;;;;;;;26.78;30.49;100094.25;5078958;28;813;-48
2022/05/23 06:11:33;;;;;;;;;;;;;;;26.79;30.23;100098.63;5079517;28;782;-42
2022/05/23 06:13:59;;;;;;;;;;;;;;;26.87;30.39;100098.47;5079251;28;835;-42
2022/05/23 06:16:25;;;;;;;;;;;;;;;26.83;30.19;100097.19;5078964;28;843;-43
2022/05/23 06:18:50;;;;;;;;;;;;;;;26.81;30.19;100099.25;5079429;28;766;-41
2022/05/23 06:21:15;;;;;;;;;;;;;;;26.76;29.74;100105.22;5079114;28;837;-43
2022/05/23 06:23:41;;;;;;;;;;;;;;;26.65;29.95;100103.91;5076123;28;1254;-43
2022/05/23 06:26:06;;;;;;;;;;;;;;;26.60;30.19;100109.06;5070353;28;1244;-42
2022/05/23 06:28:31;;;;;;;;;;;;;;;26.71;30.32;100101.47;5070132;28;1984;-43
2022/05/23 06:30:57;;;;;;;;;;;;;;;26.88;29.93;100115.47;5071793;28;1535;-42
2022/05/23 06:33:23;;;;;;;;;;;;;;;26.80;29.96;100100.28;5068645;28;1207;-50
2022/05/23 06:35:48;;;;;;;;;;;;;;;26.81;29.94;100099.25;5073089;28;1278;-43
2022/05/23 06:38:15;;;;;;;;;;;;;;;26.95;29.80;100107.44;5075852;28;1050;-45
2022/05/23 06:40:40;;;;;;;;;;;;;;;27.02;29.62;100109.19;5071866;28;1107;-44
2022/05/23 06:43:05;;;;;;;;;;;;;;;27.26;29.56;100100.78;5070324;28;1196;-47
2022/05/23 06:45:31;;;;;;;;;;;;;;;27.35;29.29;100091.50;5070643;28;1024;-46
2022/05/23 06:47:57;;;;;;;;;;;;;;;27.55;29.17;100093.44;5071777;28;1950;-42
2022/05/23 06:50:22;;;;;;;;;;;;;;;27.59;29.62;100088.47;5070187;28;1045;-43
2022/05/23 06:52:47;;;;;;;;;;;;;;;27.72;29.46;100085.84;5072658;28;1227;-52
2022/05/23 06:55:13;;;;;;;;;;;;;;;27.71;29.93;100086.88;5070387;28;1199;-44
2022/05/23 06:57:38;;;;;;;;;;;;;;;27.77;29.58;100079.81;5068886;28;1073;-43
2022/05/23 07:00:04;;;;;;;;;;;;;;;27.83;29.36;100084.41;5069337;28;1250;-48
2022/05/23 07:02:29;;;;;;;;;;;;;;;27.86;29.47;100083.19;5072882;28;1238;-44
2022/05/23 07:13:06;;;;;;;;;;;;;;;27.96;29.69;100088.19;5074992;28;1260;-44
2022/05/23 07:15:36;;;;;;;;;;;;;;;27.73;29.86;100086.66;5076542;28;825;-43
2022/05/23 07:18:03;;;;;;;;;;;;;;;27.77;29.89;100084.38;5077707;28;766;-43
2022/05/23 07:20:28;;;;;;;;;;;;;;;27.75;30.22;100088.13;5077749;28;814;-43
2022/05/23 07:22:53;;;;;;;;;;;;;;;27.81;30.21;100096.47;5076907;28;1187;-45
2022/05/23 07:25:19;;;;;;;;;;;;;;;27.97;30.22;100089.84;5078084;28;1354;-48
2022/05/23 07:27:44;;;;;;;;;;;;;;;27.85;27.75;100095.00;5077827;28;1902;-46
2022/05/23 07:30:09;;;;;;;;;;;;;;;27.89;27.94;100099.00;5077058;28;1417;-44
2022/05/23 07:32:35;;;;;;;;;;;;;;;27.75;27.92;100103.50;5076962;28;1420;-43
2022/05/23 07:35:00;;;;;;;;;;;;;;;27.93;28.52;100097.53;5066684;28;1266;-44
2022/05/23 07:37:27;;;;;;;;;;;;;;;27.91;29.41;100090.69;5077069;28;864;-43
2022/05/23 07:39:54;;;;;;;;;;;;;;;27.82;29.87;100108.94;5076793;28;822;-43
2022/05/23 07:42:19;;;;;;;;;;;;;;;27.65;28.55;100103.88;5076503;28;1435;-42
2022/05/23 07:44:45;;;;;;;;;;;;;;;27.76;29.40;100105.16;5077215;28;1306;-44
2022/05/23 07:47:10;;;;;;;;;;;;;;;27.91;29.69;100102.31;5077095;28;1993;-42
2022/05/23 07:49:35;;;;;;;;;;;;;;;27.79;29.74;100115.59;5076874;28;1443;-43
2022/05/23 07:52:02;;;;;;;;;;;;;;;27.74;29.69;100108.06;5077311;28;877;-43
2022/05/23 08:02:39;;;;;;;;;;;;;;;27.99;29.97;100112.91;5076838;28;1349;-45
2022/05/23 08:05:05;;;;;;;;;;;;;;;28.13;29.71;100115.66;5053299;28;1200;-46
2022/05/23 08:07:30;;;;;;;;;;;;;;;28.22;29.85;100117.16;5066652;28;1910;-45
2022/05/23 08:10:00;;;;;;;;;;;;;;;28.13;29.62;100110.25;5071437;28;1463;-46
2022/05/23 08:12:25;;;;;;;;;;;;;;;28.18;29.74;100125.84;5068538;28;1231;-46
2022/05/23 08:14:50;;;;;;;;;;;;;;;28.17;29.94;100118.78;5069752;28;1234;-43
2022/05/23 08:17:16;;;;;;;;;;;;;;;28.19;30.37;100105.91;5057710;28;1255;-45
2022/05/23 08:19:41;;;;;;;;;;;;;;;28.11;30.28;100107.75;5076892;28;975;-46
2022/05/23 08:22:07;;;;;;;;;;;;;;;27.97;30.06;100117.72;5076804;28;780;-45
2022/05/23 08:24:33;;;;;;;;;;;;;;;27.85;30.61;100106.66;5059366;28;750;-45
2022/05/23 08:26:59;;;;;;;;;;;;;;;27.83;30.43;100116.84;5076447;28;1971;-45
2022/05/23 08:29:25;;;;;;;;;;;;;;;27.55;31.13;100114.22;5068884;28;1116;-47
2022/05/23 08:31:50;;;;;;;;;;;;;;;27.70;30.54;100114.09;5072093;28;1251;-47
2022/05/23 08:34:15;;;;;;;;;;;;;;;27.69;30.73;100113.28;5057221;28;1198;-48
2022/05/23 08:36:41;;;;;;;;;;;;;;;27.82;30.75;100108.94;5076273;28;1194;-46
2022/05/23 08:39:06;;;;;;;;;;;;;;;27.89;30.97;100112.50;5073304;28;1167;-44
2022/05/23 08:41:32;;;;;;;;;;;;;;;27.79;30.50;100114.75;5076680;28;872;-45
2022/05/23 08:44:13;;;;;;;;;;;;;;;27.73;31.13;100113.69;5076889;28;798;-47
2022/05/23 08:46:41;;;;;;;;;;;;;;;27.86;31.00;100123.72;5075892;28;1965;-48
2022/05/23 08:49:22;;;;;;;;;;;;;;;28.09;31.03;100111.72;5077084;28;852;-46
2022/05/23 08:52:11;;;;;;;;;;;;;;;28.02;31.41;100118.97;5057908;28;913;-45
2022/05/23 08:54:40;;;;;;;;;;;;;;;27.83;31.97;100124.09;5063296;28;1252;-45
2022/05/23 08:57:05;;;;;;;;;;;;;;;27.83;31.91;100134.91;5058731;28;834;-45
2022/05/23 08:59:34;;;;;;;;;;;;;;;27.94;31.64;100125.41;5058256;28;801;-45
2022/05/23 09:02:00;;;;;;;;;;;;;;;27.98;32.34;100122.09;5058263;28;1297;-47
2022/05/23 09:04:35;;;;;;;;;;;;;;;27.94;32.10;100131.66;5076300;28;933;-45
2022/05/23 09:07:01;;;;;;;;;;;;;;;27.76;31.46;100115.97;5076377;28;1893;-45
2022/05/23 09:09:30;;;;;;;;;;;;;;;27.91;32.06;100121.22;5058401;28;880;-45
2022/05/23 09:11:59;;;;;;;;;;;;;;;27.96;31.59;100124.16;5075776;28;881;-45
2022/05/23 09:14:24;;;;;;;;;;;;;;;27.98;32.58;100116.69;5057661;28;1372;-45
2022/05/23 09:16:50;;;;;;;;;;;;;;;27.91;31.92;100123.91;5074706;28;842;-41
2022/05/23 09:19:16;;;;;;;;;;;;;;;28.09;32.06;100120.63;5071054;28;1416;-45
2022/05/23 09:24:24;;;;;;;;;;;;;;;28.08;36.88;100110.03;5072901;28;1255;-41
2022/05/23 09:26:50;;;;;;;;;;;;;;;27.91;36.86;100120.41;5071121;28;1971;-41
2022/05/23 09:29:15;;;;;;;;;;;;;;;27.73;38.05;100119.09;5057616;28;1163;-42
2022/05/23 09:31:40;;;;;;;;;;;;;;;27.91;37.78;100123.09;5074529;28;1165;-41
2022/05/23 09:34:06;;;;;;;;;;;;;;;27.96;38.05;100120.63;5075000;28;770;-40
2022/05/23 09:36:37;;;;;;;;;;;;;;;27.86;36.54;100127.25;5075733;28;754;-40
2022/05/23 09:39:09;;;;;;;;;;;;;;;28.06;37.42;100121.06;5074596;28;1214;-40
2022/05/23 09:49:47;;;;;;;;;;;;;;;28.03;35.81;100128.75;5060335;28;622;-41
2022/05/23 09:52:13;;;;;;;;;;;;;;;28.17;35.56;100132.31;5075036;28;1246;-41
2022/05/23 09:54:43;;;;;;;;;;;;;;;28.20;35.67;100142.72;5069175;28;903;-41
2022/05/23 09:57:34;;;;;;;;;;;;;;;28.18;35.61;100140.22;5056569;28;1258;-41
2022/05/23 10:00:10;;;;;;;;;;;;;;;28.27;34.98;100148.97;5069737;28;1675;-41
2022/05/23 10:02:36;;;;;;;;;;;;;;;28.15;35.04;100151.44;5074895;28;840;-41
2022/05/23 10:05:03;;;;;;;;;;;;;;;28.19;34.72;100149.16;5073882;28;1344;-41
2022/05/23 10:07:32;;;;;;;;;;;;;;;28.26;34.25;100152.69;5075710;28;1898;-41
2022/05/23 10:10:02;;;;;;;;;;;;;;;28.24;34.17;100146.69;5074061;28;1436;-42
2022/05/23 10:12:28;;;;;;;;;;;;;;;28.15;34.24;100154.16;5074611;28;1146;-43
2022/05/23 10:15:01;;;;;;;;;;;;;;;28.17;33.81;100157.50;5056609;28;1513;-42
2022/05/23 10:17:30;;;;;;;;;;;;;;;28.10;34.12;100151.22;5073075;28;1313;-43
2022/05/23 10:20:19;;;;;;;;;;;;;;;28.13;34.21;100156.22;5049211;28;970;-44
2022/05/23 10:22:55;;;;;;;;;;;;;;;27.99;34.32;100152.66;5061340;28;1965;-41
2022/05/23 10:25:20;;;;;;;;;;;;;;;27.86;34.20;100146.16;5075700;28;976;-41
2022/05/23 10:27:45;;;;;;;;;;;;;;;27.94;34.07;100155.97;5075037;28;1905;-41
2022/05/23 10:30:11;;;;;;;;;;;;;;;28.08;34.19;100156.84;5070098;28;860;-42
2022/05/23 10:32:39;;;;;;;;;;;;;;;28.04;34.07;100157.44;5051736;28;968;-42
2022/05/23 10:35:06;;;;;;;;;;;;;;;27.95;33.96;100157.63;5075283;28;829;-42
2022/05/23 10:37:40;;;;;;;;;;;;;;;27.95;33.93;100152.22;5057910;28;1154;-43
2022/05/23 10:42:58;;;;;;;;;;;;;;;28.02;33.76;100157.66;5067706;28;1001;-41
2022/05/23 10:45:27;;;;;;;;;;;;;;;28.09;34.09;100160.38;5068176;28;813;-41
2022/05/23 10:48:11;;;;;;;;;;;;;;;27.85;28.96;100159.88;5068649;28;1963;-41
2022/05/23 10:50:56;;;;;;;;;;;;;;;27.50;26.67;100153.47;5073964;28;754;-41
2022/05/23 10:53:30;;;;;;;;;;;;;;;27.81;28.88;100155.94;5061174;28;802;-38
2022/05/23 10:56:22;;;;;;;;;;;;;;;27.94;30.77;100155.97;5059938;28;1124;-40
2022/05/23 10:58:57;;;;;;;;;;;;;;;27.95;31.50;100152.22;5069337;28;1520;-42
2022/05/23 11:01:32;;;;;;;;;;;;;;;28.02;32.03;100162.22;5078646;28;891;-41
2022/05/23 11:04:03;;;;;;;;;;;;;;;28.09;32.16;100157.69;5078435;28;886;-42
2022/05/23 11:06:58;;;;;;;;;;;;;;;27.89;27.78;100149.50;5078060;28;901;-41
2022/05/23 11:09:23;;;;;;;;;;;;;;;27.97;29.23;100149.31;5060175;28;1194;-40
2022/05/23 11:12:07;;;;;;;;;;;;;;;28.04;30.60;100147.47;5076533;28;1345;-40
2022/05/23 11:14:52;;;;;;;;;;;;;;;28.08;31.31;100153.28;5077541;28;750;-40
2022/05/23 11:17:27;;;;;;;;;;;;;;;28.20;31.87;100157.06;5059350;28;1307;-39
2022/05/23 11:20:09;;;;;;;;;;;;;;;28.14;32.28;100151.66;5078020;28;815;-39
2022/05/23 11:22:35;;;;;;;;;;;;;;;28.10;32.18;100152.06;5071578;28;1128;-39
2022/05/23 11:25:03;;;;;;;;;;;;;;;27.95;32.28;100149.53;5051805;28;1303;-40
2022/05/23 11:35:49;;;;;;;;;;;;;;;28.23;32.23;100153.13;5070206;28;1145;-40
2022/05/23 11:38:18;;;;;;;;;;;;;;;28.28;32.24;100149.81;5051949;28;1346;-42
2022/05/23 11:41:01;;;;;;;;;;;;;;;28.40;32.48;100155.47;5054312;28;1112;-41
2022/05/23 11:43:27;;;;;;;;;;;;;;;28.47;32.39;100146.34;5073313;28;916;-40
2022/05/23 11:46:04;;;;;;;;;;;;;;;28.32;32.69;100137.53;5059837;28;881;-41
2022/05/23 11:48:43;;;;;;;;;;;;;;;28.54;32.59;100145.50;5075370;28;1906;-43
2022/05/23 11:51:18;;;;;;;;;;;;;;;28.53;32.46;100139.25;5071554;28;801;-42
2022/05/23 11:53:46;;;;;;;;;;;;;;;28.57;32.60;100137.81;5071830;28;798;-41
2022/05/23 11:56:30;;;;;;;;;;;;;;;28.57;32.49;100142.38;5077427;28;817;-41
2022/05/23 11:58:56;;;;;;;;;;;;;;;28.46;32.69;100154.66;5077574;28;745;-41
2022/05/23 12:01:24;;;;;;;;;;;;;;;28.56;32.58;100152.34;5058999;28;840;-41
2022/05/23 12:03:50;;;;;;;;;;;;;;;28.63;32.39;100146.94;5059816;28;1548;-40
2022/05/23 12:06:19;;;;;;;;;;;;;;;28.71;32.46;100146.72;5075691;28;989;-39
2022/05/23 12:09:00;;;;;;;;;;;;;;;28.68;32.60;100143.59;5068321;28;1906;-39
2022/05/23 12:11:35;;;;;;;;;;;;;;;28.81;32.40;100138.19;5067121;28;1207;-42
2022/05/23 12:14:15;;;;;;;;;;;;;;;28.73;32.42;100146.53;5068253;28;1247;-42
2022/05/23 12:17:05;;;;;;;;;;;;;;;28.78;32.32;100144.03;5069581;28;1238;-41
2022/05/23 12:19:40;;;;;;;;;;;;;;;28.63;32.69;100148.84;5043849;28;1682;-43
2022/05/23 12:22:23;;;;;;;;;;;;;;;28.33;32.85;100152.75;5069178;28;1249;-41
2022/05/23 12:25:07;;;;;;;;;;;;;;;28.37;32.92;100159.41;5063939;28;973;-42
2022/05/23 12:27:33;;;;;;;;;;;;;;;28.39;32.48;100159.22;5071161;28;1913;-42
2022/05/23 12:30:14;;;;;;;;;;;;;;;28.43;32.64;100165.88;5075254;28;879;-39
2022/05/23 12:32:39;;;;;;;;;;;;;;;28.31;32.76;100158.34;5077172;28;837;-42
2022/05/23 12:35:05;;;;;;;;;;;;;;;28.39;32.52;100153.81;5059240;28;825;-40
2022/05/23 12:37:41;;;;;;;;;;;;;;;28.47;32.92;100156.31;5076235;28;844;-41
2022/05/23 12:40:07;;;;;;;;;;;;;;;28.45;32.79;100161.94;5077383;28;761;-40
2022/05/23 12:42:45;;;;;;;;;;;;;;;28.21;32.87;100172.25;5076278;28;1511;-41
2022/05/23 12:45:15;;;;;;;;;;;;;;;28.24;32.63;100179.94;5058600;28;862;-40
2022/05/23 12:47:54;;;;;;;;;;;;;;;28.27;32.82;100177.88;5076338;28;1890;-42
2022/05/23 12:50:38;;;;;;;;;;;;;;;28.27;33.12;100186.00;5056538;28;826;-41
2022/05/23 12:53:06;;;;;;;;;;;;;;;28.14;32.86;100186.81;5076568;28;845;-40
2022/05/23 12:55:35;;;;;;;;;;;;;;;28.11;33.32;100183.47;5076086;28;841;-41
2022/05/23 12:58:09;;;;;;;;;;;;;;;28.07;32.69;100190.31;5076316;28;758;-40
2022/05/23 13:00:36;;;;;;;;;;;;;;;28.09;32.65;100193.63;5076128;28;836;-40
2022/05/23 13:03:07;;;;;;;;;;;;;;;28.12;32.42;100197.81;5076433;28;937;-42
2022/05/23 13:05:35;;;;;;;;;;;;;;;28.11;32.65;100199.69;5076691;28;826;-40
2022/05/23 13:08:02;;;;;;;;;;;;;;;28.16;32.37;100204.47;5058125;28;1894;-40
2022/05/23 13:10:33;;;;;;;;;;;;;;;28.19;32.59;100197.84;5076354;28;762;-41
2022/05/23 13:13:18;;;;;;;;;;;;;;;28.19;32.45;100206.81;5068424;28;1199;-40
2022/05/23 13:15:43;;;;;;;;;;;;;;;28.26;32.35;100204.09;5069582;28;1191;-41
2022/05/23 13:23:36;;;;;;;;;;;;;;;28.48;32.14;100202.09;5064212;28;969;-40
2022/05/23 13:26:09;;;;;;;;;;;;;;;28.53;32.23;100204.19;5071471;28;1274;-41
2022/05/23 13:28:38;;;;;;;;;;;;;;;28.61;31.88;100200.47;5051137;28;1977;-43
2022/05/23 13:31:06;;;;;;;;;;;;;;;28.56;31.97;100200.25;5072315;28;1195;-43
2022/05/23 13:33:32;;;;;;;;;;;;;;;28.72;32.02;100199.84;5071055;28;1227;-43
2022/05/23 13:36:02;;;;;;;;;;;;;;;28.70;31.69;100195.66;5055485;28;1246;-42
2022/05/23 13:38:28;;;;;;;;;;;;;;;28.47;32.19;100199.59;5076007;28;876;-42
2022/05/23 13:40:54;;;;;;;;;;;;;;;28.46;31.96;100211.47;5068635;28;938;-41
2022/05/23 13:43:22;;;;;;;;;;;;;;;28.51;31.89;100210.84;5065607;28;1104;-42
2022/05/23 13:45:59;;;;;;;;;;;;;;;28.02;32.03;100137.88;5067972;28;1216;-42
2022/05/23 13:48:33;;;;;;;;;;;;;;;28.64;31.90;100218.97;5067819;28;1969;-40
2022/05/23 13:50:59;;;;;;;;;;;;;;;28.72;31.84;100212.53;5056549;28;1139;-40
2022/05/23 13:53:29;;;;;;;;;;;;;;;28.76;32.17;100215.66;5055693;28;1138;-41
2022/05/23 13:55:54;;;;;;;;;;;;;;;28.85;31.56;100215.25;5067078;28;1178;-41
2022/05/23 13:58:23;;;;;;;;;;;;;;;28.62;32.18;100223.75;5056863;28;1212;-41
2022/05/23 14:00:53;;;;;;;;;;;;;;;28.78;31.93;100233.34;5066550;28;1168;-42
2022/05/23 14:03:22;;;;;;;;;;;;;;;28.75;32.18;100235.63;5051561;28;1215;-39
2022/05/23 14:05:49;;;;;;;;;;;;;;;28.58;32.36;100241.44;5073779;28;1219;-39
2022/05/23 14:08:15;;;;;;;;;;;;;;;28.39;32.42;100238.50;5074007;28;1945;-40
2022/05/23 14:10:42;;;;;;;;;;;;;;;28.45;32.55;100243.09;5073853;28;1194;-41